»·PEaware :: N614FT KRYN-KSAD

N614FT :: KRYN-KSAD

FLIGHT INFORMATION

Flight Status: Arrived
Operator: Privately registered:
United States
More flights under this callsign
Pilot: Carlos A. (16805)
Aircraft: PIPER PA-31/31P NAVAJO CHIEFTAIN
(PA31)
More flights by this aircraft type
Origin: KRYN Ryan
United States
Destination: KSAD Safford Regl
United States
More flights between these airports :: More routes between these airports
Route:
File this flight plan on PilotEdge
Remarks: Arizona Alphabet Challenge
Altitude:
(Current/Filed)
7,500ft
Speed:
(Current/Filed)
180kts
Departed: 19-Sep-23 08:58 PM
Arrived: 19-Sep-23 09:41 PM
Distance/Time
Traveled:
177nm/0:43
Distance/Time
To Go:
Arrived

Flight Plot

Page will automatically refresh every two minutes.

Flight plan parsing failed; only flown route is shown


Map Options




Map Legend


Flown Route
Filed Route
Departure Airport
Arrival Airport
Navaid (VOR, NDB)
Fix

Horizontal Profiles

Position Reports

Time Latitude Longitude Heading Altitude Ground
Speed
19-Sep-23 20:02 32.658884 -114.610167 357 220ft 0kts
19-Sep-23 20:03 32.658886 -114.610167 357 220ft 0kts
19-Sep-23 20:04 32.658887 -114.610167 357 220ft 0kts
19-Sep-23 20:05 32.658889 -114.610167 357 220ft 0kts
19-Sep-23 20:06 32.658890 -114.610167 357 220ft 0kts
19-Sep-23 20:07 32.658892 -114.610167 357 220ft 0kts
19-Sep-23 20:08 32.658893 -114.610167 357 220ft 0kts
19-Sep-23 20:09 32.658895 -114.610168 357 220ft 0kts
19-Sep-23 20:10 32.658896 -114.610168 357 220ft 0kts
19-Sep-23 20:11 32.658898 -114.610168 357 220ft 0kts
19-Sep-23 20:12 32.658899 -114.610168 357 220ft 0kts
19-Sep-23 20:13 32.658901 -114.610168 357 220ft 0kts
19-Sep-23 20:14 32.658903 -114.610168 357 220ft 0kts
19-Sep-23 20:15 32.658904 -114.610168 357 220ft 0kts
19-Sep-23 20:16 32.658905 -114.610168 357 220ft 0kts
19-Sep-23 20:17 32.658907 -114.610168 357 220ft 0kts
19-Sep-23 20:18 32.658908 -114.610168 357 220ft 0kts
19-Sep-23 20:19 32.658909 -114.610168 357 220ft 0kts
19-Sep-23 20:20 32.658911 -114.610168 357 220ft 0kts
19-Sep-23 20:21 32.658912 -114.610168 357 220ft 0kts
19-Sep-23 20:22 32.134581 -111.172754 163 2429ft 0kts
19-Sep-23 20:23 32.134580 -111.172754 163 2421ft 0kts
19-Sep-23 20:24 32.139559 -111.174248 341 2421ft 0kts
19-Sep-23 20:25 32.139561 -111.174248 341 2421ft 0kts
19-Sep-23 20:26 32.139563 -111.174249 341 2421ft 0kts
19-Sep-23 20:27 32.139565 -111.174250 341 2421ft 0kts
19-Sep-23 20:28 32.139567 -111.174250 341 2421ft 0kts
19-Sep-23 20:29 32.139568 -111.174251 341 2421ft 0kts
19-Sep-23 20:30 32.139570 -111.174252 341 2421ft 0kts
19-Sep-23 20:31 32.139572 -111.174253 341 2421ft 0kts
19-Sep-23 20:32 32.139574 -111.174253 341 2421ft 0kts
19-Sep-23 20:33 32.139576 -111.174254 341 2421ft 0kts
19-Sep-23 20:34 32.139635 -111.174273 357 2421ft 0kts
19-Sep-23 20:35 32.139562 -111.174185 228 2421ft 4kts
19-Sep-23 20:36 32.139552 -111.174256 276 2421ft 0kts
19-Sep-23 20:37 32.139554 -111.174273 276 2421ft 0kts
19-Sep-23 20:38 32.139556 -111.174288 276 2421ft 0kts
19-Sep-23 20:39 32.139556 -111.174290 276 2421ft 0kts
19-Sep-23 20:40 32.139556 -111.174293 276 2421ft 0kts
19-Sep-23 20:41 32.139556 -111.174295 276 2421ft 0kts
19-Sep-23 20:42 32.139557 -111.174298 276 2421ft 0kts
19-Sep-23 20:43 32.139557 -111.174300 276 2421ft 0kts
19-Sep-23 20:44 32.139557 -111.174303 276 2421ft 0kts
19-Sep-23 20:45 32.139309 -111.173894 95 2421ft 1kts
19-Sep-23 20:46 32.139308 -111.173883 95 2421ft 0kts
19-Sep-23 20:47 32.139333 -111.173723 70 2421ft 1kts
19-Sep-23 20:48 32.139398 -111.173526 67 2421ft 0kts
19-Sep-23 20:49 32.140764 -111.173714 329 2421ft 11kts
19-Sep-23 20:50 32.142787 -111.174667 357 2421ft 8kts
19-Sep-23 20:51 32.144223 -111.170387 70 2421ft 16kts
19-Sep-23 20:52 32.145421 -111.167543 338 2421ft 0kts
19-Sep-23 20:53 32.145423 -111.167544 338 2421ft 0kts
19-Sep-23 20:54 32.145426 -111.167545 338 2421ft 0kts
19-Sep-23 20:55 32.145428 -111.167546 338 2421ft 0kts
19-Sep-23 20:56 32.145430 -111.167547 338 2421ft 0kts
19-Sep-23 20:57 32.144811 -111.170717 248 2421ft 72kts
19-Sep-23 20:58 32.137601 -111.197711 255 3378ft 101kts
19-Sep-23 20:59 32.147418 -111.227002 307 4571ft 93kts
19-Sep-23 21:00 32.174341 -111.228018 26 5468ft 114kts
19-Sep-23 21:01 32.202699 -111.214268 24 6848ft 125kts
19-Sep-23 21:02 32.237019 -111.194761 22 7600ft 171kts
19-Sep-23 21:03 32.288265 -111.166603 21 7523ft 216kts
19-Sep-23 21:04 32.343658 -111.139304 18 7636ft 214kts
19-Sep-23 21:05 32.398214 -111.108477 22 7698ft 214kts
19-Sep-23 21:06 32.453851 -111.077367 26 7510ft 217kts
19-Sep-23 21:07 32.504028 -111.035305 38 7356ft 213kts
19-Sep-23 21:08 32.553939 -110.996472 32 7382ft 213kts
19-Sep-23 21:09 32.602379 -110.955869 33 7572ft 211kts
19-Sep-23 21:10 32.653114 -110.915907 31 7449ft 218kts
19-Sep-23 21:11 32.703934 -110.876235 33 7448ft 219kts
19-Sep-23 21:12 32.750403 -110.828762 40 7367ft 216kts
19-Sep-23 21:13 32.794657 -110.780244 45 7376ft 215kts
19-Sep-23 21:14 32.837970 -110.730044 41 7406ft 210kts
19-Sep-23 21:15 32.875859 -110.689275 42 7455ft 214kts
19-Sep-23 21:16 32.918983 -110.639513 44 7520ft 214kts
19-Sep-23 21:17 32.968983 -110.603216 19 7551ft 216kts
19-Sep-23 21:18 33.024228 -110.574170 21 7489ft 213kts
19-Sep-23 21:19 33.077348 -110.542164 44 7234ft 220kts
19-Sep-23 21:20 33.112149 -110.485087 62 7418ft 215kts
19-Sep-23 21:21 33.139220 -110.421654 63 7504ft 213kts
19-Sep-23 21:22 33.158061 -110.354669 88 7362ft 216kts
19-Sep-23 21:23 33.154861 -110.284614 103 7440ft 212kts
19-Sep-23 21:24 33.134309 -110.219049 113 7466ft 211kts
19-Sep-23 21:25 33.107002 -110.156898 123 7410ft 211kts
19-Sep-23 21:26 33.075482 -110.098211 120 7480ft 211kts
19-Sep-23 21:27 33.046132 -110.036109 123 7316ft 214kts
19-Sep-23 21:28 33.015365 -109.978234 122 6921ft 193kts
19-Sep-23 21:29 32.989389 -109.929051 121 6492ft 156kts
19-Sep-23 21:30 32.967678 -109.885210 118 6108ft 142kts
19-Sep-23 21:31 32.946736 -109.844433 133 5467ft 130kts
19-Sep-23 21:32 32.923236 -109.811235 118 5009ft 134kts
19-Sep-23 21:33 32.904002 -109.771629 120 4597ft 140kts
19-Sep-23 21:34 32.879400 -109.736771 136 4715ft 140kts
19-Sep-23 21:35 32.855151 -109.703039 98 4617ft 145kts
19-Sep-23 21:36 32.846682 -109.656665 124 4179ft 135kts
19-Sep-23 21:37 32.823443 -109.628791 137 4008ft 111kts
19-Sep-23 21:39 32.823585 -109.602233 31 3789ft 104kts
19-Sep-23 21:40 32.841302 -109.621799 311 3433ft 94kts
19-Sep-23 21:41 32.853381 -109.635552 317 3181ft 0kts
19-Sep-23 21:42 32.853709 -109.637206 161 3181ft 0kts
19-Sep-23 21:43 32.852619 -109.635958 132 3181ft 12kts
19-Sep-23 21:44 32.851111 -109.635565 283 3181ft 0kts
19-Sep-23 21:45 32.851112 -109.635568 283 3181ft 0kts
19-Sep-23 21:46 32.851112 -109.635570 283 3181ft 0kts
19-Sep-23 21:47 32.851112 -109.635570 283 3181ft 0kts
19-Sep-23 21:48 32.658878 -114.610167 357 220ft 0kts

Navigation Log

Ident Type
Flight plan parsing failed, navigation log unavailable